sensor_id;sensor_type;location;lat;lon;timestamp;pressure;altitude;pressure_sealevel;temperature;humidity
62694;BME280;48759;52.544;13.418;2023-01-13T00:00:50;99803.69;;;7.37;100.00
62694;BME280;48759;52.544;13.418;2023-01-13T00:03:17;99807.69;;;7.35;100.00
62694;BME280;48759;52.544;13.418;2023-01-13T00:05:45;99809.56;;;7.34;100.00
62694;BME280;48759;52.544;13.418;2023-01-13T00:08:11;99804.53;;;7.51;100.00
62694;BME280;48759;52.544;13.418;2023-01-13T00:10:38;99815.53;;;7.57;100.00
62694;BME280;48759;52.544;13.418;2023-01-13T00:13:05;99807.06;;;7.39;100.00
62694;BME280;48759;52.544;13.418;2023-01-13T00:15:32;99806.22;;;7.32;100.00
62694;BME280;48759;52.544;13.418;2023-01-13T00:17:58;99804.13;;;7.41;100.00
62694;BME280;48759;52.544;13.418;2023-01-13T00:20:25;99815.50;;;7.38;100.00
62694;BME280;48759;52.544;13.418;2023-01-13T00:22:54;99813.78;;;7.23;100.00
62694;BME280;48759;52.544;13.418;2023-01-13T00:25:21;99814.25;;;7.53;100.00
62694;BME280;48759;52.544;13.418;2023-01-13T00:27:47;99810.66;;;7.46;100.00
62694;BME280;48759;52.544;13.418;2023-01-13T00:30:14;99804.34;;;7.52;100.00
62694;BME280;48759;52.544;13.418;2023-01-13T00:32:41;99798.66;;;7.74;100.00
62694;BME280;48759;52.544;13.418;2023-01-13T00:35:08;99808.97;;;7.45;100.00
62694;BME280;48759;52.544;13.418;2023-01-13T00:37:35;99799.06;;;7.38;100.00
62694;BME280;48759;52.544;13.418;2023-01-13T00:40:05;99800.75;;;7.45;100.00
62694;BME280;48759;52.544;13.418;2023-01-13T00:42:32;99804.09;;;7.21;100.00
62694;BME280;48759;52.544;13.418;2023-01-13T00:45:16;99805.81;;;7.42;100.00
62694;BME280;48759;52.544;13.418;2023-01-13T00:47:43;99798.03;;;7.32;100.00
62694;BME280;48759;52.544;13.418;2023-01-13T00:50:10;99813.59;;;7.51;100.00
62694;BME280;48759;52.544;13.418;2023-01-13T00:52:36;99790.22;;;7.42;100.00
62694;BME280;48759;52.544;13.418;2023-01-13T00:55:05;99798.66;;;7.41;100.00
62694;BME280;48759;52.544;13.418;2023-01-13T00:57:33;99796.13;;;7.39;100.00
62694;BME280;48759;52.544;13.418;2023-01-13T00:59:59;99795.09;;;7.47;100.00
62694;BME280;48759;52.544;13.418;2023-01-13T01:02:26;99792.34;;;7.47;100.00
62694;BME280;48759;52.544;13.418;2023-01-13T01:04:53;99805.19;;;7.46;100.00
62694;BME280;48759;52.544;13.418;2023-01-13T01:07:20;99799.06;;;7.38;100.00
62694;BME280;48759;52.544;13.418;2023-01-13T01:09:48;99802.84;;;7.37;100.00
62694;BME280;48759;52.544;13.418;2023-01-13T01:12:16;99801.19;;;7.62;100.00
62694;BME280;48759;52.544;13.418;2023-01-13T01:14:43;99798.66;;;7.41;100.00
62694;BME280;48759;52.544;13.418;2023-01-13T01:17:09;99801.19;;;7.49;100.00
62694;BME280;48759;52.544;13.418;2023-01-13T01:19:36;99809.63;;;7.67;100.00
62694;BME280;48759;52.544;13.418;2023-01-13T01:22:03;99810.03;;;7.44;100.00
62694;BME280;48759;52.544;13.418;2023-01-13T01:24:30;99807.72;;;7.74;100.00
62694;BME280;48759;52.544;13.418;2023-01-13T01:26:56;99804.16;;;7.87;100.00
62694;BME280;48759;52.544;13.418;2023-01-13T01:29:24;99816.34;;;7.51;100.00
62694;BME280;48759;52.544;13.418;2023-01-13T01:31:51;99809.00;;;7.72;100.00
62694;BME280;48759;52.544;13.418;2023-01-13T01:34:18;99796.34;;;7.71;100.00
62694;BME280;48759;52.544;13.418;2023-01-13T01:36:44;99798.88;;;7.65;100.00
62694;BME280;48759;52.544;13.418;2023-01-13T01:39:11;99801.19;;;7.55;100.00
62694;BME280;48759;52.544;13.418;2023-01-13T01:41:38;99806.66;;;7.82;100.00
62694;BME280;48759;52.544;13.418;2023-01-13T01:44:51;99797.84;;;7.73;100.00
62694;BME280;48759;52.544;13.418;2023-01-13T01:47:19;99797.41;;;7.83;100.00
62694;BME280;48759;52.544;13.418;2023-01-13T01:49:47;99788.53;;;7.74;100.00
62694;BME280;48759;52.544;13.418;2023-01-13T01:52:16;99772.97;;;7.88;100.00
62694;BME280;48759;52.544;13.418;2023-01-13T01:54:48;99787.28;;;7.70;100.00
62694;BME280;48759;52.544;13.418;2023-01-13T01:57:22;99782.44;;;7.39;100.00
62694;BME280;48759;52.544;13.418;2023-01-13T01:59:51;99784.78;;;7.55;100.00
62694;BME280;48759;52.544;13.418;2023-01-13T02:02:18;99784.97;;;7.47;100.00
62694;BME280;48759;52.544;13.418;2023-01-13T02:04:49;99773.19;;;7.40;100.00
62694;BME280;48759;52.544;13.418;2023-01-13T02:10:40;99781.59;;;7.45;100.00
62694;BME280;48759;52.544;13.418;2023-01-13T02:13:10;99770.25;;;7.55;100.00
62694;BME280;48759;52.544;13.418;2023-01-13T02:15:43;99779.94;;;7.71;100.00
62694;BME280;48759;52.544;13.418;2023-01-13T02:18:28;99777.16;;;7.84;100.00
62694;BME280;48759;52.544;13.418;2023-01-13T02:24:08;99776.56;;;7.62;100.00
62694;BME280;48759;52.544;13.418;2023-01-13T02:30:15;99771.69;;;7.97;100.00
62694;BME280;48759;52.544;13.418;2023-01-13T02:33:12;99775.94;;;7.73;100.00
62694;BME280;48759;52.544;13.418;2023-01-13T02:35:48;99770.44;;;7.66;100.00
62694;BME280;48759;52.544;13.418;2023-01-13T02:38:19;99757.38;;;7.95;100.00
62694;BME280;48759;52.544;13.418;2023-01-13T02:40:49;99768.09;;;8.03;100.00
62694;BME280;48759;52.544;13.418;2023-01-13T02:43:26;99770.63;;;8.11;100.00
62694;BME280;48759;52.544;13.418;2023-01-13T02:46:16;99767.50;;;7.88;100.00
62694;BME280;48759;52.544;13.418;2023-01-13T02:48:45;99763.25;;;7.65;100.00
62694;BME280;48759;52.544;13.418;2023-01-13T02:51:16;99762.44;;;7.58;100.00
62694;BME280;48759;52.544;13.418;2023-01-13T02:53:46;99771.28;;;7.60;100.00
62694;BME280;48759;52.544;13.418;2023-01-13T02:56:16;99762.84;;;7.68;100.00
62694;BME280;48759;52.544;13.418;2023-01-13T02:58:44;99761.81;;;7.69;100.00
62694;BME280;48759;52.544;13.418;2023-01-13T03:01:14;99759.69;;;7.58;100.00
62694;BME280;48759;52.544;13.418;2023-01-13T03:03:40;99763.28;;;7.79;100.00
62694;BME280;48759;52.544;13.418;2023-01-13T03:06:16;99755.69;;;7.67;100.00
62694;BME280;48759;52.544;13.418;2023-01-13T03:08:49;99756.13;;;7.78;100.00
62694;BME280;48759;52.544;13.418;2023-01-13T03:11:18;99757.56;;;7.74;100.00
62694;BME280;48759;52.544;13.418;2023-01-13T03:14:00;99753.41;;;7.64;100.00
62694;BME280;48759;52.544;13.418;2023-01-13T03:16:41;99751.91;;;7.62;100.00
62694;BME280;48759;52.544;13.418;2023-01-13T03:19:24;99748.97;;;7.70;100.00
62694;BME280;48759;52.544;13.418;2023-01-13T03:21:54;99738.22;;;7.68;100.00
62694;BME280;48759;52.544;13.418;2023-01-13T03:24:27;99736.75;;;7.73;100.00
62694;BME280;48759;52.544;13.418;2023-01-13T03:26:59;99738.63;;;7.59;100.00
62694;BME280;48759;52.544;13.418;2023-01-13T03:29:32;99736.53;;;7.81;100.00
62694;BME280;48759;52.544;13.418;2023-01-13T03:32:05;99744.94;;;7.86;100.00
62694;BME280;48759;52.544;13.418;2023-01-13T03:34:38;99743.47;;;7.77;100.00
62694;BME280;48759;52.544;13.418;2023-01-13T03:37:09;99744.75;;;7.81;100.00
62694;BME280;48759;52.544;13.418;2023-01-13T03:39:42;99736.31;;;7.76;100.00
62694;BME280;48759;52.544;13.418;2023-01-13T03:42:16;99748.09;;;7.76;100.00
62694;BME280;48759;52.544;13.418;2023-01-13T03:44:47;99742.41;;;7.58;100.00
62694;BME280;48759;52.544;13.418;2023-01-13T03:47:22;99746.41;;;7.42;100.00
62694;BME280;48759;52.544;13.418;2023-01-13T03:49:54;99744.13;;;7.39;100.00
62694;BME280;48759;52.544;13.418;2023-01-13T03:52:25;99737.59;;;7.47;100.00
62694;BME280;48759;52.544;13.418;2023-01-13T03:54:56;99740.94;;;7.68;100.00
62694;BME280;48759;52.544;13.418;2023-01-13T03:57:28;99741.81;;;7.62;100.00
62694;BME280;48759;52.544;13.418;2023-01-13T03:59:59;99747.28;;;7.62;100.00
62694;BME280;48759;52.544;13.418;2023-01-13T04:02:41;99743.47;;;7.77;100.00
62694;BME280;48759;52.544;13.418;2023-01-13T04:05:11;99727.25;;;7.42;100.00
62694;BME280;48759;52.544;13.418;2023-01-13T04:07:45;99730.22;;;7.47;100.00
62694;BME280;48759;52.544;13.418;2023-01-13T04:10:16;99736.31;;;7.43;100.00
62694;BME280;48759;52.544;13.418;2023-01-13T04:12:47;99727.50;;;7.47;100.00
62694;BME280;48759;52.544;13.418;2023-01-13T04:15:31;99731.06;;;7.41;100.00
62694;BME280;48759;52.544;13.418;2023-01-13T04:18:11;99730.22;;;7.47;100.00
62694;BME280;48759;52.544;13.418;2023-01-13T04:20:39;99729.38;;;7.40;100.00
62694;BME280;48759;52.544;13.418;2023-01-13T04:23:06;99738.41;;;7.34;100.00
62694;BME280;48759;52.544;13.418;2023-01-13T04:25:33;99736.31;;;7.23;100.00
62694;BME280;48759;52.544;13.418;2023-01-13T04:28:00;99734.00;;;7.20;100.00
62694;BME280;48759;52.544;13.418;2023-01-13T04:30:27;99733.59;;;7.23;100.00
62694;BME280;48759;52.544;13.418;2023-01-13T04:32:54;99739.66;;;7.18;100.00
62694;BME280;48759;52.544;13.418;2023-01-13T04:35:22;99734.19;;;7.12;100.00
62694;BME280;48759;52.544;13.418;2023-01-13T04:37:49;99737.31;;;6.96;100.00
62694;BME280;48759;52.544;13.418;2023-01-13T04:40:15;99738.16;;;7.03;100.00
62694;BME280;48759;52.544;13.418;2023-01-13T04:42:43;99736.50;;;7.02;100.00
62694;BME280;48759;52.544;13.418;2023-01-13T04:45:10;99741.31;;;6.86;100.00
62694;BME280;48759;52.544;13.418;2023-01-13T04:47:36;99743.63;;;6.96;100.00
62694;BME280;48759;52.544;13.418;2023-01-13T04:50:04;99739.16;;;6.75;100.00
62694;BME280;48759;52.544;13.418;2023-01-13T04:52:32;99739.81;;;6.84;100.00
62694;BME280;48759;52.544;13.418;2023-01-13T04:54:59;99741.72;;;6.83;100.00
62694;BME280;48759;52.544;13.418;2023-01-13T04:57:26;99747.00;;;6.91;100.00
62694;BME280;48759;52.544;13.418;2023-01-13T04:59:52;99750.19;;;7.02;100.00
62694;BME280;48759;52.544;13.418;2023-01-13T05:02:19;99750.59;;;7.05;100.00
62694;BME280;48759;52.544;13.418;2023-01-13T05:04:46;99755.28;;;7.71;100.00
62694;BME280;48759;52.544;13.418;2023-01-13T05:07:14;99753.09;;;8.25;100.00
62694;BME280;48759;52.544;13.418;2023-01-13T05:09:42;99753.53;;;7.04;100.00
62694;BME280;48759;52.544;13.418;2023-01-13T05:12:10;99764.91;;;8.06;100.00
62694;BME280;48759;52.544;13.418;2023-01-13T05:14:54;99774.59;;;8.35;100.00
62694;BME280;48759;52.544;13.418;2023-01-13T05:17:38;99765.66;;;8.53;100.00
62694;BME280;48759;52.544;13.418;2023-01-13T05:20:05;99776.31;;;7.37;100.00
62694;BME280;48759;52.544;13.418;2023-01-13T05:22:32;99784.75;;;7.29;100.00
62694;BME280;48759;52.544;13.418;2023-01-13T05:25:18;99787.09;;;7.85;100.00
62694;BME280;48759;52.544;13.418;2023-01-13T05:27:49;99776.50;;;8.34;100.00
62694;BME280;48759;52.544;13.418;2023-01-13T05:30:17;99779.50;;;7.93;100.00
62694;BME280;48759;52.544;13.418;2023-01-13T05:32:44;99777.59;;;7.67;100.00
62694;BME280;48759;52.544;13.418;2023-01-13T05:35:10;99781.53;;;8.44;100.00
62694;BME280;48759;52.544;13.418;2023-01-13T05:37:37;99776.44;;;8.48;100.00
62694;BME280;48759;52.544;13.418;2023-01-13T05:40:05;99795.13;;;8.70;100.00
62694;BME280;48759;52.544;13.418;2023-01-13T05:43:01;99790.91;;;9.12;100.00
62694;BME280;48759;52.544;13.418;2023-01-13T05:45:47;99789.66;;;9.46;100.00
62694;BME280;48759;52.544;13.418;2023-01-13T05:48:14;99789.09;;;9.69;100.00
62694;BME280;48759;52.544;13.418;2023-01-13T05:50:41;99791.00;;;8.48;100.00
62694;BME280;48759;52.544;13.418;2023-01-13T05:53:08;99803.25;;;7.27;100.00
62694;BME280;48759;52.544;13.418;2023-01-13T05:55:37;99809.56;;;7.21;100.00
62694;BME280;48759;52.544;13.418;2023-01-13T05:58:05;99813.75;;;7.10;100.00
62694;BME280;48759;52.544;13.418;2023-01-13T06:00:32;99814.19;;;7.27;100.00
62694;BME280;48759;52.544;13.418;2023-01-13T06:02:59;99825.31;;;7.06;100.00
62694;BME280;48759;52.544;13.418;2023-01-13T06:05:25;99820.88;;;7.05;100.00
62694;BME280;48759;52.544;13.418;2023-01-13T06:07:55;99812.63;;;6.85;100.00
62694;BME280;48759;52.544;13.418;2023-01-13T06:10:22;99813.41;;;7.59;100.00
62694;BME280;48759;52.544;13.418;2023-01-13T06:12:48;99815.84;;;7.02;100.00
62694;BME280;48759;52.544;13.418;2023-01-13T06:15:17;99804.84;;;6.88;100.00
62694;BME280;48759;52.544;13.418;2023-01-13T06:17:43;99810.78;;;6.99;100.00
62694;BME280;48759;52.544;13.418;2023-01-13T06:20:11;99800.22;;;6.89;100.00
62694;BME280;48759;52.544;13.418;2023-01-13T06:22:40;99806.53;;;6.89;100.00
62694;BME280;48759;52.544;13.418;2023-01-13T06:25:13;99820.88;;;7.05;100.00
62694;BME280;48759;52.544;13.418;2023-01-13T06:27:44;99825.59;;;7.50;100.00
62694;BME280;48759;52.544;13.418;2023-01-13T06:30:11;99815.09;;;7.60;100.00
62694;BME280;48759;52.544;13.418;2023-01-13T06:32:41;99819.72;;;7.53;100.00
62694;BME280;48759;52.544;13.418;2023-01-13T06:35:12;99801.63;;;8.18;100.00
62694;BME280;48759;52.544;13.418;2023-01-13T06:37:40;99801.19;;;7.75;100.00
62694;BME280;48759;52.544;13.418;2023-01-13T06:40:09;99808.13;;;7.91;100.00
62694;BME280;48759;52.544;13.418;2023-01-13T06:42:38;99804.34;;;7.39;100.00
62694;BME280;48759;52.544;13.418;2023-01-13T06:45:23;99806.03;;;7.53;100.00
62694;BME280;48759;52.544;13.418;2023-01-13T06:47:52;99810.66;;;7.59;100.00
62694;BME280;48759;52.544;13.418;2023-01-13T06:50:19;99786.47;;;7.69;100.00
62694;BME280;48759;52.544;13.418;2023-01-13T06:52:45;99779.72;;;7.52;100.00
62694;BME280;48759;52.544;13.418;2023-01-13T06:55:12;99767.09;;;7.64;100.00
62694;BME280;48759;52.544;13.418;2023-01-13T06:57:47;99762.00;;;7.68;100.00
62694;BME280;48759;52.544;13.418;2023-01-13T07:00:14;99785.00;;;7.80;100.00
62694;BME280;48759;52.544;13.418;2023-01-13T07:02:42;99794.66;;;7.83;100.00
62694;BME280;48759;52.544;13.418;2023-01-13T07:05:10;99791.06;;;7.76;100.00
62694;BME280;48759;52.544;13.418;2023-01-13T07:07:37;99787.91;;;7.59;100.00
62694;BME280;48759;52.544;13.418;2023-01-13T07:10:05;99796.97;;;7.59;100.00
62694;BME280;48759;52.544;13.418;2023-01-13T07:12:37;99797.63;;;7.61;100.00
62694;BME280;48759;52.544;13.418;2023-01-13T07:15:24;99799.91;;;7.51;100.00
62694;BME280;48759;52.544;13.418;2023-01-13T07:17:50;99792.56;;;7.45;100.00
62694;BME280;48759;52.544;13.418;2023-01-13T07:20:18;99799.50;;;7.41;100.00
62694;BME280;48759;52.544;13.418;2023-01-13T07:22:45;99783.28;;;7.59;100.00
62694;BME280;48759;52.544;13.418;2023-01-13T07:25:12;99778.88;;;7.65;100.00
62694;BME280;48759;52.544;13.418;2023-01-13T07:27:39;99764.56;;;7.56;100.00
62694;BME280;48759;52.544;13.418;2023-01-13T07:30:07;99752.56;;;7.64;100.00
62694;BME280;48759;52.544;13.418;2023-01-13T07:32:34;99766.63;;;7.74;100.00
62694;BME280;48759;52.544;13.418;2023-01-13T07:35:01;99795.53;;;7.57;100.00
62694;BME280;48759;52.544;13.418;2023-01-13T07:37:33;99788.16;;;7.64;100.00
62694;BME280;48759;52.544;13.418;2023-01-13T07:40:00;99768.75;;;7.52;100.00
62694;BME280;48759;52.544;13.418;2023-01-13T07:42:27;99788.34;;;7.89;100.00
62694;BME280;48759;52.544;13.418;2023-01-13T07:45:11;99790.66;;;7.52;100.00
62694;BME280;48759;52.544;13.418;2023-01-13T07:47:38;99786.88;;;7.66;100.00
62694;BME280;48759;52.544;13.418;2023-01-13T07:50:06;99793.00;;;7.55;100.00
62694;BME280;48759;52.544;13.418;2023-01-13T07:52:35;99798.66;;;7.47;100.00
62694;BME280;48759;52.544;13.418;2023-01-13T07:55:04;99810.66;;;7.46;100.00
62694;BME280;48759;52.544;13.418;2023-01-13T07:57:34;99817.84;;;7.54;100.00
62694;BME280;48759;52.544;13.418;2023-01-13T08:00:01;99808.97;;;7.45;100.00
62694;BME280;48759;52.544;13.418;2023-01-13T08:02:30;99798.25;;;7.63;100.00
62694;BME280;48759;52.544;13.418;2023-01-13T08:04:57;99794.47;;;7.64;100.00
62694;BME280;48759;52.544;13.418;2023-01-13T08:07:23;99799.28;;;7.36;100.00
62694;BME280;48759;52.544;13.418;2023-01-13T08:09:51;99819.72;;;7.53;100.00
62694;BME280;48759;52.544;13.418;2023-01-13T08:12:18;99837.00;;;7.74;100.00
62694;BME280;48759;52.544;13.418;2023-01-13T08:15:03;99845.44;;;7.79;100.00
62694;BME280;48759;52.544;13.418;2023-01-13T08:17:29;99831.13;;;7.83;100.00
62694;BME280;48759;52.544;13.418;2023-01-13T08:19:56;99834.47;;;7.92;100.00
62694;BME280;48759;52.544;13.418;2023-01-13T08:22:23;99837.03;;;8.26;100.00
62694;BME280;48759;52.544;13.418;2023-01-13T08:24:49;99847.34;;;7.85;100.00
62694;BME280;48759;52.544;13.418;2023-01-13T08:27:18;99852.81;;;7.98;100.00
62694;BME280;48759;52.544;13.418;2023-01-13T08:29:45;99860.63;;;8.14;100.00
62694;BME280;48759;52.544;13.418;2023-01-13T08:32:12;99843.31;;;8.47;100.00
62694;BME280;48759;52.544;13.418;2023-01-13T08:34:38;99846.28;;;7.99;100.00
62694;BME280;48759;52.544;13.418;2023-01-13T08:37:05;99848.84;;;7.81;100.00
62694;BME280;48759;52.544;13.418;2023-01-13T08:39:32;99858.06;;;7.66;100.00
62694;BME280;48759;52.544;13.418;2023-01-13T08:42:00;99841.63;;;7.53;100.00
62694;BME280;48759;52.544;13.418;2023-01-13T08:44:30;99835.94;;;7.55;100.00
62694;BME280;48759;52.544;13.418;2023-01-13T08:46:57;99855.09;;;7.48;100.00
62694;BME280;48759;52.544;13.418;2023-01-13T08:49:24;99824.34;;;7.40;100.00
62694;BME280;48759;52.544;13.418;2023-01-13T08:51:52;99834.84;;;7.43;100.00
62694;BME280;48759;52.544;13.418;2023-01-13T08:54:19;99863.94;;;7.44;100.00
62694;BME280;48759;52.544;13.418;2023-01-13T08:56:46;99875.69;;;7.24;100.00
62694;BME280;48759;52.544;13.418;2023-01-13T08:59:13;99886.66;;;7.44;100.00
62694;BME280;48759;52.544;13.418;2023-01-13T09:01:42;99886.63;;;7.24;100.00
62694;BME280;48759;52.544;13.418;2023-01-13T09:04:14;99876.09;;;7.35;100.00
62694;BME280;48759;52.544;13.418;2023-01-13T09:06:42;99886.63;;;7.31;100.00
62694;BME280;48759;52.544;13.418;2023-01-13T09:09:09;99860.53;;;7.28;100.00
62694;BME280;48759;52.544;13.418;2023-01-13T09:11:39;99826.84;;;7.35;100.00
62694;BME280;48759;52.544;13.418;2023-01-13T09:14:26;99824.34;;;7.46;100.00
62694;BME280;48759;52.544;13.418;2023-01-13T09:16:54;99774.00;;;7.34;100.00
62694;BME280;48759;52.544;13.418;2023-01-13T09:19:21;99715.69;;;7.53;100.00
62694;BME280;48759;52.544;13.418;2023-01-13T09:21:47;99794.78;;;9.43;100.00
62694;BME280;48759;52.544;13.418;2023-01-13T09:24:14;99852.41;;;7.88;100.00
62694;BME280;48759;52.544;13.418;2023-01-13T09:26:41;99861.72;;;7.13;100.00
62694;BME280;48759;52.544;13.418;2023-01-13T09:29:07;99866.25;;;7.40;100.00
62694;BME280;48759;52.544;13.418;2023-01-13T09:31:34;99859.84;;;12.81;100.00
62694;BME280;48759;52.544;13.418;2023-01-13T09:34:04;99861.38;;;14.85;100.00
62694;BME280;48759;52.544;13.418;2023-01-13T09:36:49;99855.56;;;11.85;91.59
62694;BME280;48759;52.544;13.418;2023-01-13T09:39:16;99860.13;;;13.76;100.00
62694;BME280;48759;52.544;13.418;2023-01-13T09:41:46;99844.09;;;13.61;100.00
62694;BME280;48759;52.544;13.418;2023-01-13T09:44:39;99843.66;;;10.58;100.00
62694;BME280;48759;52.544;13.418;2023-01-13T09:47:13;99842.47;;;13.94;100.00
62694;BME280;48759;52.544;13.418;2023-01-13T09:49:44;99836.03;;;15.20;86.31
62694;BME280;48759;52.544;13.418;2023-01-13T09:52:14;99838.91;;;11.80;99.66
62694;BME280;48759;52.544;13.418;2023-01-13T09:54:44;99835.44;;;9.59;100.00
62694;BME280;48759;52.544;13.418;2023-01-13T09:57:15;99860.66;;;12.11;100.00
62694;BME280;48759;52.544;13.418;2023-01-13T09:59:42;99863.63;;;13.43;100.00
62694;BME280;48759;52.544;13.418;2023-01-13T10:02:28;99854.50;;;13.42;89.11
62694;BME280;48759;52.544;13.418;2023-01-13T10:05:09;99865.69;;;14.98;85.08
62694;BME280;48759;52.544;13.418;2023-01-13T10:07:41;99864.16;;;16.04;79.20
62694;BME280;48759;52.544;13.418;2023-01-13T10:10:15;99861.59;;;12.98;98.20
62694;BME280;48759;52.544;13.418;2023-01-13T10:12:44;99871.28;;;15.68;82.08
62694;BME280;48759;52.544;13.418;2023-01-13T10:15:30;99862.81;;;12.09;100.00
62694;BME280;48759;52.544;13.418;2023-01-13T10:18:03;99879.28;;;15.00;86.67
62694;BME280;48759;52.544;13.418;2023-01-13T10:20:41;99877.81;;;12.25;100.00
62694;BME280;48759;52.544;13.418;2023-01-13T10:23:26;99870.59;;;10.56;100.00
62694;BME280;48759;52.544;13.418;2023-01-13T10:26:02;99866.28;;;13.38;100.00
62694;BME280;48759;52.544;13.418;2023-01-13T10:28:34;99869.44;;;11.48;100.00
62694;BME280;48759;52.544;13.418;2023-01-13T10:31:08;99869.31;;;15.20;85.02
62694;BME280;48759;52.544;13.418;2023-01-13T10:33:36;99878.31;;;15.49;77.68
62694;BME280;48759;52.544;13.418;2023-01-13T10:36:12;99873.78;;;13.26;77.88
62694;BME280;48759;52.544;13.418;2023-01-13T10:38:41;99874.16;;;13.86;87.75
62694;BME280;48759;52.544;13.418;2023-01-13T10:41:18;99877.41;;;15.71;72.69
62694;BME280;48759;52.544;13.418;2023-01-13T10:43:58;99872.00;;;13.48;100.00
62694;BME280;48759;52.544;13.418;2023-01-13T10:46:27;99857.03;;;9.49;100.00
62694;BME280;48759;52.544;13.418;2023-01-13T10:48:55;99859.84;;;14.95;80.81
62694;BME280;48759;52.544;13.418;2023-01-13T10:51:26;99859.59;;;15.40;70.23
62694;BME280;48759;52.544;13.418;2023-01-13T10:53:58;99867.28;;;13.89;82.79
62694;BME280;48759;52.544;13.418;2023-01-13T10:56:28;99867.53;;;10.40;100.00
62694;BME280;48759;52.544;13.418;2023-01-13T10:59:12;99869.91;;;14.62;86.05
62694;BME280;48759;52.544;13.418;2023-01-13T11:01:41;99856.97;;;10.98;84.91
62694;BME280;48759;52.544;13.418;2023-01-13T11:04:25;99860.63;;;13.45;100.00
62694;BME280;48759;52.544;13.418;2023-01-13T11:06:54;99855.59;;;16.38;69.80
62694;BME280;48759;52.544;13.418;2023-01-13T11:09:22;99854.03;;;17.62;63.09
62694;BME280;48759;52.544;13.418;2023-01-13T11:11:50;99864.34;;;16.62;63.23
62694;BME280;48759;52.544;13.418;2023-01-13T11:14:24;99869.25;;;10.34;84.57
62694;BME280;48759;52.544;13.418;2023-01-13T11:17:04;99867.09;;;14.79;84.65
62694;BME280;48759;52.544;13.418;2023-01-13T11:19:36;99862.06;;;11.31;78.30
62694;BME280;48759;52.544;13.418;2023-01-13T11:22:08;99865.75;;;9.33;100.00
62694;BME280;48759;52.544;13.418;2023-01-13T11:24:41;99861.88;;;8.31;100.00
62694;BME280;48759;52.544;13.418;2023-01-13T11:27:12;99859.09;;;12.15;100.00
62694;BME280;48759;52.544;13.418;2023-01-13T11:29:51;99864.66;;;9.02;100.00
62694;BME280;48759;52.544;13.418;2023-01-13T11:32:22;99863.47;;;9.68;100.00
62694;BME280;48759;52.544;13.418;2023-01-13T11:34:53;99870.44;;;14.81;73.53
62694;BME280;48759;52.544;13.418;2023-01-13T11:37:25;99864.41;;;9.10;100.00
62694;BME280;48759;52.544;13.418;2023-01-13T11:39:56;99864.38;;;10.36;86.21
62694;BME280;48759;52.544;13.418;2023-01-13T11:42:31;99854.28;;;8.07;100.00
62694;BME280;48759;52.544;13.418;2023-01-13T11:45:06;99862.13;;;12.72;73.38
62694;BME280;48759;52.544;13.418;2023-01-13T11:47:45;99859.22;;;14.04;75.84
62694;BME280;48759;52.544;13.418;2023-01-13T11:50:15;99857.31;;;12.91;88.88
62694;BME280;48759;52.544;13.418;2023-01-13T11:52:58;99854.78;;;9.71;90.38
62694;BME280;48759;52.544;13.418;2023-01-13T11:55:33;99852.06;;;14.75;76.31
62694;BME280;48759;52.544;13.418;2023-01-13T11:58:13;99863.31;;;11.46;66.40
62694;BME280;48759;52.544;13.418;2023-01-13T12:00:57;99856.34;;;16.70;59.99
62694;BME280;48759;52.544;13.418;2023-01-13T12:03:32;99852.56;;;14.16;66.97
62694;BME280;48759;52.544;13.418;2023-01-13T12:06:10;99853.22;;;12.47;79.19
62694;BME280;48759;52.544;13.418;2023-01-13T12:08:56;99852.97;;;7.50;100.00
62694;BME280;48759;52.544;13.418;2023-01-13T12:11:34;99863.41;;;11.40;63.89
62694;BME280;48759;52.544;13.418;2023-01-13T12:14:34;99858.72;;;10.74;64.24
62694;BME280;48759;52.544;13.418;2023-01-13T12:17:12;99862.66;;;7.33;100.00
62694;BME280;48759;52.544;13.418;2023-01-13T12:19:46;99852.38;;;7.48;100.00
62694;BME280;48759;52.544;13.418;2023-01-13T12:22:20;99860.00;;;6.99;100.00
62694;BME280;48759;52.544;13.418;2023-01-13T12:24:54;99858.56;;;13.40;83.03
62694;BME280;48759;52.544;13.418;2023-01-13T12:27:31;99848.53;;;14.24;62.11
62694;BME280;48759;52.544;13.418;2023-01-13T12:30:01;99859.13;;;15.26;59.30
62694;BME280;48759;52.544;13.418;2023-01-13T12:32:33;99864.34;;;15.66;58.93
62694;BME280;48759;52.544;13.418;2023-01-13T12:35:14;99857.22;;;10.10;62.62
62694;BME280;48759;52.544;13.418;2023-01-13T12:37:54;99856.94;;;12.99;76.53
62694;BME280;48759;52.544;13.418;2023-01-13T12:40:41;99863.13;;;7.69;99.72
62694;BME280;48759;52.544;13.418;2023-01-13T12:43:17;99868.63;;;8.02;93.65
62694;BME280;48759;52.544;13.418;2023-01-13T12:49:30;99865.81;;;8.75;86.75
62694;BME280;48759;52.544;13.418;2023-01-13T12:52:14;99872.84;;;7.79;100.00
62694;BME280;48759;52.544;13.418;2023-01-13T12:55:02;99881.34;;;8.94;100.00
62694;BME280;48759;52.544;13.418;2023-01-13T12:57:35;99880.81;;;8.53;82.44
62694;BME280;48759;52.544;13.418;2023-01-13T13:00:21;99880.81;;;11.04;62.47
62694;BME280;48759;52.544;13.418;2023-01-13T13:03:26;99882.72;;;10.42;62.64
62694;BME280;48759;52.544;13.418;2023-01-13T13:05:56;99891.34;;;7.63;88.81
62694;BME280;48759;52.544;13.418;2023-01-13T13:08:37;99890.38;;;10.40;62.40
62694;BME280;48759;52.544;13.418;2023-01-13T13:11:20;99890.13;;;7.79;83.81
62694;BME280;48759;52.544;13.418;2023-01-13T13:14:09;99894.31;;;15.69;54.39
62694;BME280;48759;52.544;13.418;2023-01-13T13:16:46;99894.00;;;9.53;74.73
62694;BME280;48759;52.544;13.418;2023-01-13T13:19:42;99890.13;;;14.63;53.73
62694;BME280;48759;52.544;13.418;2023-01-13T13:22:42;99884.19;;;16.75;48.57
62694;BME280;48759;52.544;13.418;2023-01-13T13:25:25;99895.16;;;15.43;50.56
62694;BME280;48759;52.544;13.418;2023-01-13T13:28:00;99894.88;;;11.32;66.75